createdAt,value
2023-03-07T00:01:48.603Z,2.70
2023-03-07T00:04:21.864Z,2.60
2023-03-07T00:06:56.423Z,2.60
2023-03-07T00:09:28.698Z,2.60
2023-03-07T00:12:00.787Z,2.60
2023-03-07T00:14:33.119Z,2.60
2023-03-07T00:17:05.322Z,2.60
2023-03-07T00:19:37.583Z,2.60
2023-03-07T00:22:14.601Z,2.50
2023-03-07T00:24:48.665Z,2.50
2023-03-07T00:27:20.647Z,2.50
2023-03-07T00:29:52.986Z,2.50
2023-03-07T00:32:25.456Z,2.50
2023-03-07T00:34:59.775Z,2.50
2023-03-07T00:37:32.351Z,2.50
2023-03-07T00:40:06.735Z,2.50
2023-03-07T00:42:40.933Z,2.50
2023-03-07T00:45:13.747Z,2.60
2023-03-07T00:47:45.885Z,2.50
2023-03-07T00:50:17.907Z,2.60
2023-03-07T00:52:49.935Z,2.60
2023-03-07T00:55:21.901Z,2.50
2023-03-07T00:57:53.917Z,2.50
2023-03-07T01:00:25.854Z,2.60
2023-03-07T01:02:58.259Z,2.60
2023-03-07T01:05:32.893Z,2.60
2023-03-07T01:08:09.702Z,2.60
2023-03-07T01:10:41.989Z,2.60
2023-03-07T01:13:15.677Z,2.60
2023-03-07T01:15:48.574Z,2.70
2023-03-07T01:18:20.764Z,2.70
2023-03-07T01:20:52.870Z,2.70
2023-03-07T01:23:24.848Z,2.70
2023-03-07T01:25:56.814Z,2.70
2023-03-07T01:28:28.858Z,2.80
2023-03-07T01:31:01.068Z,2.80
2023-03-07T01:33:33.220Z,2.80
2023-03-07T01:36:05.910Z,2.80
2023-03-07T01:38:49.231Z,2.80
2023-03-07T01:41:41.286Z,2.80
2023-03-07T01:44:27.848Z,2.80
2023-03-07T01:47:00.881Z,2.80
2023-03-07T01:49:40.964Z,2.80
2023-03-07T01:52:34.321Z,2.80
2023-03-07T01:55:18.715Z,2.70
2023-03-07T01:58:13.546Z,2.80
2023-03-07T02:00:45.995Z,2.80
2023-03-07T02:03:25.909Z,2.70
2023-03-07T02:06:09.534Z,2.70
2023-03-07T02:08:45.202Z,2.70
2023-03-07T02:11:19.387Z,2.70
2023-03-07T02:13:51.601Z,2.70
2023-03-07T02:16:23.776Z,2.70
2023-03-07T02:18:57.051Z,2.70
2023-03-07T02:22:00.898Z,2.70
2023-03-07T02:25:03.289Z,2.60
2023-03-07T02:27:39.908Z,2.60
2023-03-07T02:30:13.158Z,2.60
2023-03-07T02:32:45.366Z,2.60
2023-03-07T02:35:21.837Z,2.60
2023-03-07T02:38:01.528Z,2.60
2023-03-07T02:40:35.562Z,2.60
2023-03-07T02:43:09.655Z,2.60
2023-03-07T02:45:42.154Z,2.60
2023-03-07T02:48:14.708Z,2.60
2023-03-07T02:50:50.939Z,2.60
2023-03-07T02:53:24.034Z,2.60
2023-03-07T02:55:56.344Z,2.60
2023-03-07T02:58:28.338Z,2.60
2023-03-07T03:01:00.720Z,2.60
2023-03-07T03:03:32.651Z,2.60
2023-03-07T03:06:04.862Z,2.60
2023-03-07T03:08:37.049Z,2.60
2023-03-07T03:11:09.221Z,2.60
2023-03-07T03:13:41.250Z,2.70
2023-03-07T03:16:13.247Z,2.70
2023-03-07T03:18:45.450Z,2.70
2023-03-07T03:21:17.581Z,2.70
2023-03-07T03:23:49.651Z,2.80
2023-03-07T03:26:21.708Z,2.80
2023-03-07T03:28:55.015Z,2.80
2023-03-07T03:31:28.850Z,2.80
2023-03-07T03:34:01.496Z,2.80
2023-03-07T03:36:33.843Z,2.80
2023-03-07T03:39:10.891Z,2.80
2023-03-07T03:41:43.210Z,2.80
2023-03-07T03:44:16.838Z,2.80
2023-03-07T03:46:49.041Z,2.80
2023-03-07T03:49:21.077Z,2.80
2023-03-07T03:51:53.279Z,2.80
2023-03-07T03:54:25.231Z,2.90
2023-03-07T03:56:57.648Z,2.90
2023-03-07T03:59:29.909Z,2.90
2023-03-07T04:02:02.034Z,2.90
2023-03-07T04:04:34.179Z,2.90
2023-03-07T04:07:06.716Z,2.90
2023-03-07T04:09:38.774Z,2.90
2023-03-07T04:12:10.897Z,2.90
2023-03-07T04:14:42.942Z,2.90
2023-03-07T04:17:14.946Z,2.90
2023-03-07T04:19:46.881Z,3.00
2023-03-07T04:22:18.912Z,2.90
2023-03-07T04:24:50.947Z,3.00
2023-03-07T04:27:23.145Z,2.90
2023-03-07T04:29:55.699Z,3.00
2023-03-07T04:32:27.764Z,2.90
2023-03-07T04:34:59.744Z,3.00
2023-03-07T04:37:32.594Z,3.00
2023-03-07T04:40:04.977Z,3.00
2023-03-07T04:42:37.912Z,3.00
2023-03-07T04:45:10.640Z,3.10
2023-03-07T04:47:42.771Z,3.10
2023-03-07T04:50:16.979Z,3.10
2023-03-07T04:52:50.594Z,3.10
2023-03-07T04:55:23.071Z,3.20
2023-03-07T04:57:57.630Z,3.20
2023-03-07T05:00:29.725Z,3.20
2023-03-07T05:03:02.270Z,3.20
2023-03-07T05:05:37.451Z,3.30
2023-03-07T05:08:10.014Z,3.30
2023-03-07T05:10:42.071Z,3.40
2023-03-07T05:13:14.228Z,3.40
2023-03-07T05:15:52.668Z,3.40
2023-03-07T05:18:27.499Z,3.40
2023-03-07T05:20:59.617Z,3.50
2023-03-07T05:23:31.746Z,3.40
2023-03-07T05:26:03.970Z,3.40
2023-03-07T05:28:36.352Z,3.40
2023-03-07T05:31:08.659Z,3.30
2023-03-07T05:33:42.598Z,3.30
2023-03-07T05:36:15.252Z,3.30
2023-03-07T05:38:47.870Z,3.20
2023-03-07T05:41:20.085Z,3.20
2023-03-07T05:43:52.960Z,3.10
2023-03-07T05:46:26.518Z,3.10
2023-03-07T05:48:58.587Z,3.10
2023-03-07T05:51:30.486Z,3.00
2023-03-07T05:54:02.643Z,3.10
2023-03-07T05:56:34.784Z,3.10
2023-03-07T05:59:07.821Z,3.10
2023-03-07T06:01:43.003Z,3.10
2023-03-07T06:04:15.089Z,3.10
2023-03-07T06:06:47.428Z,3.10
2023-03-07T06:09:19.662Z,3.10
2023-03-07T06:11:53.147Z,3.10
2023-03-07T06:14:25.750Z,3.10
2023-03-07T06:16:57.782Z,3.10
2023-03-07T06:19:29.963Z,3.10
2023-03-07T06:22:02.290Z,3.10
2023-03-07T06:24:34.947Z,3.10
2023-03-07T06:27:07.036Z,3.10
2023-03-07T06:29:39.088Z,3.10
2023-03-07T06:32:11.233Z,3.00
2023-03-07T06:34:43.615Z,3.10
2023-03-07T06:37:15.673Z,3.10
2023-03-07T06:39:47.759Z,3.10
2023-03-07T06:42:20.057Z,3.10
2023-03-07T06:44:52.286Z,3.10
2023-03-07T06:47:24.305Z,3.10
2023-03-07T06:49:57.492Z,3.20
2023-03-07T06:52:29.440Z,3.20
2023-03-07T06:55:01.461Z,3.20
2023-03-07T06:57:34.585Z,3.20
2023-03-07T07:00:07.400Z,3.30
2023-03-07T07:02:40.400Z,3.30
2023-03-07T07:05:13.091Z,3.30
2023-03-07T07:07:45.292Z,3.40
2023-03-07T07:10:17.600Z,3.40
2023-03-07T07:12:54.416Z,3.40
2023-03-07T07:15:27.587Z,3.40
2023-03-07T07:17:59.747Z,3.50
2023-03-07T07:20:31.912Z,3.50
2023-03-07T07:23:04.041Z,3.60
2023-03-07T07:25:37.836Z,3.70
2023-03-07T07:28:09.923Z,3.70
2023-03-07T07:30:42.032Z,3.80
2023-03-07T07:33:14.246Z,3.80
2023-03-07T07:35:47.371Z,3.90
2023-03-07T07:38:19.411Z,4.00
2023-03-07T07:40:51.537Z,4.10
2023-03-07T07:43:23.652Z,4.10
2023-03-07T07:45:56.009Z,4.20
2023-03-07T07:48:28.013Z,4.20
2023-03-07T07:51:04.343Z,4.30
2023-03-07T07:53:36.583Z,4.30
2023-03-07T07:56:08.830Z,4.40
2023-03-07T07:58:41.044Z,4.40
2023-03-07T08:01:25.087Z,4.50
2023-03-07T08:03:57.160Z,4.60
2023-03-07T08:06:41.441Z,4.60
2023-03-07T08:09:15.228Z,4.70
2023-03-07T08:11:48.449Z,4.70
2023-03-07T08:14:20.699Z,4.80
2023-03-07T08:16:52.896Z,4.80
2023-03-07T08:19:25.011Z,4.90
2023-03-07T08:21:57.223Z,5.10
2023-03-07T08:24:40.581Z,5.30
2023-03-07T08:27:13.377Z,5.60
2023-03-07T08:29:49.310Z,5.90
2023-03-07T08:32:21.521Z,5.90
2023-03-07T08:34:54.019Z,5.80
2023-03-07T08:37:26.447Z,5.80
2023-03-07T08:39:58.671Z,5.70
2023-03-07T08:42:30.809Z,5.70
2023-03-07T08:45:03.064Z,5.70
2023-03-07T08:47:35.751Z,5.70
2023-03-07T08:50:08.970Z,5.60
2023-03-07T08:52:43.578Z,5.70
2023-03-07T08:55:16.926Z,5.70
2023-03-07T08:57:49.077Z,5.80
2023-03-07T09:00:21.336Z,5.90
2023-03-07T09:02:54.517Z,6.00
2023-03-07T09:05:30.002Z,6.00
2023-03-07T09:08:03.512Z,6.10
2023-03-07T09:10:37.010Z,6.10
2023-03-07T09:13:09.265Z,6.10
2023-03-07T09:15:42.176Z,6.20
2023-03-07T09:18:14.903Z,6.20
2023-03-07T09:20:47.096Z,6.30
2023-03-07T09:23:19.265Z,6.40
2023-03-07T09:25:51.661Z,6.50
2023-03-07T09:28:23.860Z,6.50
2023-03-07T09:30:56.236Z,6.40
2023-03-07T09:33:28.678Z,6.20
2023-03-07T09:36:03.776Z,6.10
2023-03-07T09:38:37.854Z,6.10
2023-03-07T09:41:13.094Z,6.00
2023-03-07T09:44:17.511Z,5.90
2023-03-07T09:47:47.170Z,5.80
2023-03-07T09:50:59.329Z,5.70
2023-03-07T09:53:58.307Z,5.70
2023-03-07T09:57:00.436Z,5.60
2023-03-07T09:59:43.071Z,5.60
2023-03-07T10:02:31.392Z,5.60
2023-03-07T10:05:32.245Z,5.50
2023-03-07T10:08:22.317Z,5.50
2023-03-07T10:11:06.473Z,5.50
2023-03-07T10:14:35.224Z,5.40
2023-03-07T10:17:39.049Z,5.40
2023-03-07T10:20:45.628Z,5.40
2023-03-07T10:23:32.583Z,5.40
2023-03-07T10:26:42.389Z,5.30
2023-03-07T10:29:45.856Z,5.30
2023-03-07T10:32:21.898Z,5.20
2023-03-07T10:35:13.650Z,5.20
2023-03-07T10:37:57.391Z,5.30
2023-03-07T10:40:55.339Z,5.20
2023-03-07T10:43:33.313Z,5.20
2023-03-07T10:46:27.862Z,5.20
2023-03-07T10:49:09.865Z,5.20
2023-03-07T10:52:00.673Z,5.20
2023-03-07T10:54:38.928Z,5.20
2023-03-07T10:57:16.217Z,5.20
2023-03-07T10:59:50.536Z,5.10
2023-03-07T11:02:31.578Z,5.10
2023-03-07T11:05:36.652Z,5.20
2023-03-07T11:08:33.612Z,5.10
2023-03-07T11:11:23.913Z,5.10
2023-03-07T11:14:10.029Z,5.10
2023-03-07T11:16:55.595Z,5.10
2023-03-07T11:19:35.597Z,5.10
2023-03-07T11:22:36.506Z,5.10
2023-03-07T11:25:26.615Z,5.10
2023-03-07T11:27:59.104Z,5.10
2023-03-07T11:31:00.402Z,5.10
2023-03-07T11:34:19.823Z,5.10
2023-03-07T11:37:33.553Z,5.10
2023-03-07T11:40:49.432Z,5.10
2023-03-07T11:44:12.048Z,5.10
2023-03-07T11:47:30.886Z,5.10
2023-03-07T11:50:29.476Z,5.10
2023-03-07T11:53:21.562Z,5.20
2023-03-07T11:56:09.459Z,5.20
2023-03-07T11:59:00.979Z,5.10
2023-03-07T12:02:02.742Z,5.10
2023-03-07T12:05:11.752Z,5.10
2023-03-07T12:08:29.970Z,5.20
2023-03-07T12:11:52.517Z,5.20
2023-03-07T12:14:53.579Z,5.20
2023-03-07T12:18:04.839Z,5.30
2023-03-07T12:21:22.335Z,5.30
2023-03-07T12:24:17.834Z,5.40
2023-03-07T12:27:04.143Z,5.40
2023-03-07T12:30:04.563Z,5.60
2023-03-07T12:32:47.535Z,5.70
2023-03-07T12:35:49.506Z,5.70
2023-03-07T12:38:29.636Z,5.80
2023-03-07T12:41:30.572Z,5.90
2023-03-07T12:44:25.431Z,6.00
2023-03-07T12:47:18.033Z,6.00
2023-03-07T12:50:18.901Z,6.10
2023-03-07T12:53:03.858Z,6.10
2023-03-07T12:56:05.039Z,6.20
2023-03-07T12:58:47.615Z,6.30
2023-03-07T13:02:00.212Z,6.40
2023-03-07T13:04:39.519Z,6.50
2023-03-07T13:07:22.747Z,6.60
2023-03-07T13:09:59.440Z,6.70
2023-03-07T13:12:39.013Z,6.70
2023-03-07T13:15:21.089Z,6.70
2023-03-07T13:18:28.031Z,6.70
2023-03-07T13:21:28.077Z,6.70
2023-03-07T13:24:39.984Z,6.70
2023-03-07T13:27:17.685Z,6.70
2023-03-07T13:30:12.878Z,6.60
2023-03-07T13:32:55.796Z,6.60
2023-03-07T13:35:35.890Z,6.50
2023-03-07T13:38:41.994Z,6.50
2023-03-07T13:41:44.113Z,6.50
2023-03-07T13:44:39.502Z,6.50
2023-03-07T13:47:40.790Z,6.50
2023-03-07T13:50:33.941Z,6.50
2023-03-07T13:53:31.710Z,6.50
2023-03-07T13:56:16.380Z,6.50
2023-03-07T13:59:10.075Z,6.40
2023-03-07T14:02:03.576Z,6.50
2023-03-07T14:04:54.482Z,6.50
2023-03-07T14:07:41.272Z,6.50
2023-03-07T14:10:28.293Z,6.60
2023-03-07T14:13:22.119Z,6.70
2023-03-07T14:16:10.781Z,6.70
2023-03-07T14:19:17.087Z,6.70
2023-03-07T14:22:16.567Z,6.80
2023-03-07T14:25:11.058Z,6.90
2023-03-07T14:28:18.732Z,7.30
2023-03-07T14:31:05.736Z,7.70
2023-03-07T14:33:54.220Z,7.80
2023-03-07T14:36:31.361Z,7.70
2023-03-07T14:39:04.343Z,7.60
2023-03-07T14:42:03.562Z,7.50
2023-03-07T14:45:26.992Z,7.40
2023-03-07T14:48:47.808Z,7.30
2023-03-07T14:51:30.919Z,7.20
2023-03-07T14:54:08.987Z,7.10
2023-03-07T14:56:49.809Z,7.10
2023-03-07T14:59:29.061Z,7.10
2023-03-07T15:02:01.584Z,7.10
2023-03-07T15:04:35.842Z,7.20
2023-03-07T15:07:22.392Z,7.40
2023-03-07T15:09:55.504Z,7.70
2023-03-07T15:12:29.435Z,8.00
2023-03-07T15:15:05.677Z,8.10
2023-03-07T15:17:47.899Z,8.10
2023-03-07T15:22:26.673Z,8.10
2023-03-07T15:25:03.155Z,8.10
2023-03-07T15:27:37.880Z,8.00
2023-03-07T15:30:23.783Z,8.00
2023-03-07T15:33:20.641Z,8.10
2023-03-07T15:36:13.476Z,8.00
2023-03-07T15:38:53.232Z,7.80
2023-03-07T15:42:08.333Z,7.70
2023-03-07T15:44:59.384Z,7.50
2023-03-07T15:47:34.522Z,7.30
2023-03-07T15:50:19.656Z,7.30
2023-03-07T15:53:27.640Z,7.10
2023-03-07T15:56:16.572Z,7.10
2023-03-07T15:59:17.735Z,7.10
2023-03-07T16:01:57.976Z,7.10
2023-03-07T16:04:49.880Z,7.10
2023-03-07T16:07:24.618Z,7.00
2023-03-07T16:09:57.296Z,7.00
2023-03-07T16:12:29.406Z,6.90
2023-03-07T16:15:03.710Z,6.80
2023-03-07T16:17:38.262Z,6.80
2023-03-07T16:20:24.795Z,6.70
2023-03-07T16:22:59.042Z,6.70
2023-03-07T16:25:32.521Z,6.70
2023-03-07T16:28:05.747Z,6.60
2023-03-07T16:30:44.923Z,6.60
2023-03-07T16:33:17.453Z,6.60
2023-03-07T16:35:51.142Z,6.50
2023-03-07T16:38:24.113Z,6.50
2023-03-07T16:40:58.173Z,6.40
2023-03-07T16:43:36.414Z,6.40
2023-03-07T16:46:16.202Z,6.40
2023-03-07T16:48:49.314Z,6.30
2023-03-07T16:51:26.279Z,6.30
2023-03-07T16:54:00.876Z,6.30
2023-03-07T16:56:40.949Z,6.30
2023-03-07T16:59:18.153Z,6.30
2023-03-07T17:01:54.672Z,6.20
2023-03-07T17:04:27.702Z,6.20
2023-03-07T17:07:04.778Z,6.20
2023-03-07T17:09:46.788Z,6.10
2023-03-07T17:12:22.724Z,6.10
2023-03-07T17:14:59.297Z,6.00
2023-03-07T17:17:35.002Z,5.90
2023-03-07T17:20:08.871Z,5.90
2023-03-07T17:22:45.411Z,5.80
2023-03-07T17:25:18.648Z,5.80
2023-03-07T17:28:01.533Z,5.70
2023-03-07T17:30:43.158Z,5.70
2023-03-07T17:33:16.955Z,5.60
2023-03-07T17:35:51.034Z,5.50
2023-03-07T17:38:23.931Z,5.50
2023-03-07T17:40:57.156Z,5.50
2023-03-07T17:43:29.877Z,5.40
2023-03-07T17:46:12.285Z,5.40
2023-03-07T17:48:44.726Z,5.30
2023-03-07T17:51:17.681Z,5.30
2023-03-07T17:53:50.161Z,5.20
2023-03-07T17:56:23.589Z,5.20
2023-03-07T17:59:01.592Z,5.10
2023-03-07T18:01:36.357Z,5.10
2023-03-07T18:04:09.455Z,5.00
2023-03-07T18:06:42.911Z,5.00
2023-03-07T18:09:18.893Z,5.00
2023-03-07T18:11:57.963Z,4.90
2023-03-07T18:14:30.955Z,4.90
2023-03-07T18:17:04.480Z,4.80
2023-03-07T18:19:39.038Z,4.80
2023-03-07T18:22:11.682Z,4.70
2023-03-07T18:24:44.370Z,4.70
2023-03-07T18:27:17.183Z,4.70
2023-03-07T18:29:50.956Z,4.60
2023-03-07T18:32:26.840Z,4.50
2023-03-07T18:35:03.145Z,4.50
2023-03-07T18:37:36.995Z,4.50
2023-03-07T18:40:10.639Z,4.50
2023-03-07T18:42:43.899Z,4.50
2023-03-07T18:45:17.274Z,4.50
2023-03-07T18:47:50.934Z,4.50
2023-03-07T18:50:25.069Z,4.50
2023-03-07T18:52:57.963Z,4.60
2023-03-07T18:55:39.103Z,4.60
2023-03-07T18:58:12.245Z,4.70
2023-03-07T19:00:45.103Z,4.70
2023-03-07T19:03:18.441Z,4.70
2023-03-07T19:05:52.631Z,4.70
2023-03-07T19:08:27.152Z,4.80
2023-03-07T19:11:03.584Z,4.80
2023-03-07T19:13:38.582Z,4.90
2023-03-07T19:16:15.546Z,4.90
2023-03-07T19:18:52.376Z,4.90
2023-03-07T19:21:28.704Z,4.90
2023-03-07T19:24:04.954Z,4.90
2023-03-07T19:26:43.442Z,4.90
2023-03-07T19:29:17.410Z,4.90
2023-03-07T19:31:52.488Z,5.00
2023-03-07T19:34:26.240Z,5.00
2023-03-07T19:36:59.650Z,5.00
2023-03-07T19:39:33.862Z,5.00
2023-03-07T19:42:09.721Z,5.00
2023-03-07T19:44:44.071Z,4.90
2023-03-07T19:47:18.563Z,5.00
2023-03-07T19:49:53.247Z,5.00
2023-03-07T19:52:27.518Z,5.00
2023-03-07T19:55:01.639Z,5.00
2023-03-07T19:57:37.040Z,5.00
2023-03-07T20:00:13.350Z,5.00
2023-03-07T20:02:49.348Z,5.00
2023-03-07T20:05:24.024Z,5.00
2023-03-07T20:07:59.649Z,4.90
2023-03-07T20:10:36.585Z,4.90
2023-03-07T20:13:14.369Z,4.90
2023-03-07T20:15:55.785Z,4.90
2023-03-07T20:18:31.815Z,4.90
2023-03-07T20:21:15.067Z,4.90
2023-03-07T20:23:51.863Z,4.90
2023-03-07T20:26:32.327Z,4.90
2023-03-07T20:29:11.982Z,4.90
2023-03-07T20:31:50.926Z,4.90
2023-03-07T20:34:27.589Z,4.90
2023-03-07T20:37:02.613Z,4.90
2023-03-07T20:39:43.683Z,4.90
2023-03-07T20:42:18.608Z,4.90
2023-03-07T20:44:53.716Z,5.00
2023-03-07T20:47:29.070Z,4.90
2023-03-07T20:50:08.836Z,5.00
2023-03-07T20:52:44.052Z,5.00
2023-03-07T20:55:20.181Z,5.10
2023-03-07T20:57:54.573Z,5.10
2023-03-07T21:00:29.266Z,5.10
2023-03-07T21:03:05.997Z,5.10
2023-03-07T21:05:43.378Z,5.10
2023-03-07T21:08:17.911Z,5.10
2023-03-07T21:11:04.010Z,5.10
2023-03-07T21:13:43.946Z,5.10
2023-03-07T21:16:22.586Z,5.10
2023-03-07T21:19:04.033Z,5.10
2023-03-07T21:21:40.146Z,5.10
2023-03-07T21:24:16.337Z,5.10
2023-03-07T21:26:50.871Z,5.10
2023-03-07T21:29:25.544Z,5.10
2023-03-07T21:32:00.115Z,5.00
2023-03-07T21:34:34.310Z,5.00
2023-03-07T21:37:09.869Z,5.10
2023-03-07T21:39:44.076Z,5.10
2023-03-07T21:42:18.648Z,5.10
2023-03-07T21:44:53.030Z,5.10
2023-03-07T21:47:28.397Z,5.10
2023-03-07T21:50:02.180Z,5.10
2023-03-07T21:52:37.091Z,5.10
2023-03-07T21:55:11.171Z,5.10
2023-03-07T21:57:45.521Z,5.10
2023-03-07T22:00:19.990Z,5.10
2023-03-07T22:02:55.770Z,5.10
2023-03-07T22:05:29.755Z,5.10
2023-03-07T22:08:03.792Z,5.10
2023-03-07T22:10:37.580Z,5.10
2023-03-07T22:13:10.851Z,5.10
2023-03-07T22:15:44.479Z,5.10
2023-03-07T22:18:17.747Z,5.10
2023-03-07T22:20:50.738Z,5.00
2023-03-07T22:23:24.259Z,5.00
2023-03-07T22:26:03.447Z,5.00
2023-03-07T22:28:38.321Z,5.00
2023-03-07T22:31:13.412Z,4.90
2023-03-07T22:33:45.777Z,4.90
2023-03-07T22:36:18.613Z,4.90
2023-03-07T22:38:55.845Z,4.80
2023-03-07T22:41:34.303Z,4.80
2023-03-07T22:44:06.710Z,4.80
2023-03-07T22:46:39.198Z,4.70
2023-03-07T22:49:12.217Z,4.70
2023-03-07T22:51:44.386Z,4.70
2023-03-07T22:54:16.506Z,4.70
2023-03-07T22:56:49.049Z,4.70
2023-03-07T22:59:21.447Z,4.70
2023-03-07T23:01:53.626Z,4.60
2023-03-07T23:04:27.252Z,4.60
2023-03-07T23:07:01.367Z,4.60
2023-03-07T23:09:34.066Z,4.60
2023-03-07T23:12:06.861Z,4.50
2023-03-07T23:14:39.272Z,4.40
2023-03-07T23:17:17.466Z,4.40
2023-03-07T23:19:52.299Z,4.40
2023-03-07T23:22:24.337Z,4.40
2023-03-07T23:24:56.466Z,4.30
2023-03-07T23:27:28.492Z,4.30
2023-03-07T23:30:00.708Z,4.30
2023-03-07T23:32:32.961Z,4.30
2023-03-07T23:35:05.896Z,4.30
2023-03-07T23:37:38.510Z,4.20
2023-03-07T23:40:13.366Z,4.20
2023-03-07T23:42:45.464Z,4.20
2023-03-07T23:45:19.628Z,4.10
2023-03-07T23:47:53.662Z,4.10
2023-03-07T23:50:25.978Z,4.10
2023-03-07T23:52:58.327Z,4.10
2023-03-07T23:55:50.518Z,4.10
2023-03-07T23:58:22.614Z,4.10
